createdAt,value
2023-03-12T00:01:38.888Z,24.36
2023-03-12T00:05:39.031Z,24.36
2023-03-12T00:09:38.995Z,24.37
2023-03-12T00:13:38.941Z,24.35
2023-03-12T00:17:38.922Z,24.36
2023-03-12T00:21:38.873Z,24.36
2023-03-12T00:25:39.858Z,24.35
2023-03-12T00:29:38.789Z,24.35
2023-03-12T00:33:38.732Z,24.35
2023-03-12T00:37:38.721Z,24.35
2023-03-12T00:41:38.655Z,24.36
2023-03-12T00:45:38.621Z,24.34
2023-03-12T00:49:38.614Z,24.34
2023-03-12T00:53:38.568Z,24.34
2023-03-12T00:57:38.642Z,24.34
2023-03-12T01:01:38.775Z,24.34
2023-03-12T01:05:38.874Z,24.33
2023-03-12T01:09:39.049Z,24.33
2023-03-12T01:13:39.242Z,24.33
2023-03-12T01:17:39.343Z,24.33
2023-03-12T01:21:40.309Z,24.33
2023-03-12T01:25:39.663Z,24.32
2023-03-12T01:29:39.867Z,24.32
2023-03-12T01:33:40.049Z,24.33
2023-03-12T01:37:40.272Z,24.32
2023-03-12T01:41:40.449Z,24.32
2023-03-12T01:45:40.468Z,24.32
2023-03-12T01:49:40.546Z,24.31
2023-03-12T01:53:40.719Z,24.31
2023-03-12T01:57:40.777Z,24.30
2023-03-12T02:01:40.923Z,24.30
2023-03-12T02:05:41.052Z,24.30
2023-03-12T02:09:41.261Z,24.31
2023-03-12T02:13:41.418Z,24.30
2023-03-12T02:17:41.537Z,24.30
2023-03-12T02:21:41.614Z,24.31
2023-03-12T02:25:41.740Z,24.30
2023-03-12T02:29:41.947Z,24.29
2023-03-12T02:33:42.107Z,24.30
2023-03-12T02:37:42.364Z,24.31
2023-03-12T02:41:42.472Z,24.30
2023-03-12T02:45:42.613Z,24.30
2023-03-12T02:49:42.690Z,24.30
2023-03-12T02:53:42.800Z,24.30
2023-03-12T02:57:42.889Z,24.30
2023-03-12T03:01:43.125Z,24.29
2023-03-12T03:05:43.177Z,24.29
2023-03-12T03:09:43.370Z,24.30
2023-03-12T03:13:43.485Z,24.30
2023-03-12T03:17:43.672Z,24.29
2023-03-12T03:21:43.885Z,24.29
2023-03-12T03:25:44.027Z,24.29
2023-03-12T03:29:44.175Z,24.29
2023-03-12T03:33:44.275Z,24.29
2023-03-12T03:37:44.369Z,24.29
2023-03-12T03:41:45.378Z,24.29
2023-03-12T03:45:44.657Z,24.29
2023-03-12T03:49:44.739Z,24.29
2023-03-12T03:53:45.361Z,24.29
2023-03-12T03:57:44.996Z,24.28
2023-03-12T04:01:45.109Z,24.28
2023-03-12T04:05:45.460Z,24.28
2023-03-12T04:09:45.379Z,24.27
2023-03-12T04:13:45.554Z,24.27
2023-03-12T04:17:45.670Z,24.27
2023-03-12T04:21:45.743Z,24.28
2023-03-12T04:25:45.899Z,24.27
2023-03-12T04:29:46.030Z,24.28
2023-03-12T04:33:46.154Z,24.27
2023-03-12T04:37:46.292Z,24.26
2023-03-12T04:41:46.513Z,24.28
2023-03-12T04:45:47.406Z,24.28
2023-03-12T04:49:46.737Z,24.27
2023-03-12T04:53:46.968Z,24.26
2023-03-12T04:57:47.023Z,24.26
2023-03-12T05:01:47.127Z,24.26
2023-03-12T05:05:47.264Z,24.26
2023-03-12T05:09:47.441Z,24.26
2023-03-12T05:13:47.573Z,24.26
2023-03-12T05:17:47.755Z,24.26
2023-03-12T05:21:47.929Z,24.26
2023-03-12T05:25:48.409Z,24.27
2023-03-12T05:29:48.132Z,24.27
2023-03-12T05:33:48.648Z,24.26
2023-03-12T05:37:48.425Z,24.26
2023-03-12T05:41:48.560Z,24.27
2023-03-12T05:45:48.939Z,24.26
2023-03-12T05:49:48.811Z,24.27
2023-03-12T05:53:48.964Z,24.27
2023-03-12T05:57:49.118Z,24.27
2023-03-12T06:01:49.242Z,24.27
2023-03-12T06:05:49.333Z,24.28
2023-03-12T06:09:49.483Z,24.28
2023-03-12T06:13:49.617Z,24.29
2023-03-12T06:17:49.785Z,24.29
2023-03-12T06:21:49.948Z,24.30
2023-03-12T06:25:50.057Z,24.30
2023-03-12T06:29:50.171Z,24.32
2023-03-12T06:33:50.301Z,24.32
2023-03-12T06:37:50.441Z,24.32
2023-03-12T06:41:50.609Z,24.34
2023-03-12T06:45:50.933Z,24.36
2023-03-12T06:49:50.950Z,24.38
2023-03-12T06:53:51.128Z,24.38
2023-03-12T06:57:51.306Z,24.39
2023-03-12T07:01:52.513Z,24.43
2023-03-12T07:05:51.718Z,24.45
2023-03-12T07:09:51.853Z,24.47
2023-03-12T07:13:52.032Z,24.49
2023-03-12T07:17:52.185Z,24.51
2023-03-12T07:21:52.190Z,24.54
2023-03-12T07:25:52.345Z,24.55
2023-03-12T07:29:52.501Z,24.56
2023-03-12T07:33:52.827Z,24.57
2023-03-12T07:37:52.878Z,24.58
2023-03-12T07:41:53.196Z,24.61
2023-03-12T07:45:53.237Z,24.62
2023-03-12T07:49:53.403Z,24.65
2023-03-12T07:53:54.468Z,24.67
2023-03-12T07:57:53.734Z,24.68
2023-03-12T08:01:53.873Z,24.68
2023-03-12T08:05:54.041Z,24.73
2023-03-12T08:09:54.156Z,24.79
2023-03-12T08:13:54.279Z,24.85
2023-03-12T08:17:54.428Z,24.87
2023-03-12T08:21:54.516Z,24.84
2023-03-12T08:25:54.693Z,24.86
2023-03-12T08:29:54.855Z,24.88
2023-03-12T08:33:54.951Z,24.86
2023-03-12T08:37:55.102Z,24.88
2023-03-12T08:41:55.260Z,24.92
2023-03-12T08:45:55.397Z,24.97
2023-03-12T08:49:55.439Z,25.04
2023-03-12T08:53:55.569Z,25.09
2023-03-12T08:57:55.640Z,25.07
2023-03-12T09:01:56.008Z,25.11
2023-03-12T09:05:55.933Z,25.10
2023-03-12T09:09:55.933Z,25.12
2023-03-12T09:14:33.490Z,25.15
2023-03-12T09:17:57.136Z,25.16
2023-03-12T09:21:56.288Z,25.17
2023-03-12T09:25:56.499Z,25.18
2023-03-12T09:30:00.718Z,25.16
2023-03-12T09:33:56.720Z,25.15
2023-03-12T09:37:57.007Z,25.19
2023-03-12T09:41:56.649Z,25.23
2023-03-12T09:45:56.585Z,25.25
2023-03-12T09:49:56.595Z,25.28
2023-03-12T09:53:56.801Z,25.34
2023-03-12T09:57:56.988Z,25.44
2023-03-12T10:01:57.074Z,25.44
2023-03-12T10:05:57.202Z,25.43
2023-03-12T10:09:57.325Z,25.39
2023-03-12T10:13:57.540Z,25.40
2023-03-12T10:17:57.704Z,25.40
2023-03-12T10:21:57.751Z,25.42
2023-03-12T10:25:57.877Z,25.45
2023-03-12T10:29:58.071Z,25.44
2023-03-12T10:33:58.164Z,25.43
2023-03-12T10:38:05.547Z,25.44
2023-03-12T10:41:58.568Z,25.45
2023-03-12T10:45:58.259Z,25.46
2023-03-12T10:49:58.152Z,25.45
2023-03-12T10:53:58.127Z,25.47
2023-03-12T10:57:58.063Z,25.53
2023-03-12T11:01:58.151Z,25.58
2023-03-12T11:05:58.236Z,25.62
2023-03-12T11:09:58.308Z,25.66
2023-03-12T11:13:58.454Z,25.66
2023-03-12T11:17:58.571Z,25.66
2023-03-12T11:21:58.738Z,25.69
2023-03-12T11:25:58.808Z,25.74
2023-03-12T11:29:58.918Z,25.75
2023-03-12T11:33:59.086Z,25.85
2023-03-12T11:37:59.155Z,25.93
2023-03-12T11:41:59.336Z,26.03
2023-03-12T11:45:59.433Z,26.16
2023-03-12T11:49:59.543Z,26.22
2023-03-12T11:53:59.614Z,26.27
2023-03-12T11:57:59.670Z,26.22
2023-03-12T12:02:00.644Z,26.16
2023-03-12T12:05:59.818Z,26.14
2023-03-12T12:09:59.932Z,26.17
2023-03-12T12:14:00.020Z,26.15
2023-03-12T12:18:00.137Z,26.15
2023-03-12T12:22:00.596Z,26.13
2023-03-12T12:26:00.334Z,26.14
2023-03-12T12:30:00.375Z,26.16
2023-03-12T12:34:00.580Z,26.13
2023-03-12T12:38:00.771Z,26.11
2023-03-12T12:42:00.789Z,26.09
2023-03-12T12:46:00.966Z,26.05
2023-03-12T12:50:00.997Z,26.06
2023-03-12T12:54:01.129Z,26.06
2023-03-12T12:58:01.654Z,26.03
2023-03-12T13:02:01.365Z,26.02
2023-03-12T13:06:01.494Z,26.00
2023-03-12T13:10:01.570Z,25.99
2023-03-12T13:14:01.643Z,25.99
2023-03-12T13:18:01.747Z,25.98
2023-03-12T13:22:01.825Z,25.96
2023-03-12T13:26:01.894Z,25.92
2023-03-12T13:30:01.927Z,25.88
2023-03-12T13:34:02.053Z,25.85
2023-03-12T13:38:02.037Z,25.82
2023-03-12T13:42:02.166Z,25.79
2023-03-12T13:46:02.324Z,25.76
2023-03-12T13:50:02.366Z,25.73
2023-03-12T13:54:02.452Z,25.68
2023-03-12T13:58:02.600Z,25.64
2023-03-12T14:02:02.757Z,25.62
2023-03-12T14:06:02.819Z,25.59
2023-03-12T14:10:02.947Z,25.60
2023-03-12T14:14:03.111Z,25.60
2023-03-12T14:18:03.238Z,25.59
2023-03-12T14:22:03.343Z,25.58
2023-03-12T14:26:04.284Z,25.57
2023-03-12T14:30:03.599Z,25.56
2023-03-12T14:34:03.718Z,25.55
2023-03-12T14:38:03.865Z,25.53
2023-03-12T14:42:04.057Z,25.52
2023-03-12T14:46:04.207Z,25.52
2023-03-12T14:50:04.280Z,25.50
2023-03-12T14:54:04.423Z,25.50
2023-03-12T14:58:04.528Z,25.49
2023-03-12T15:02:04.773Z,25.48
2023-03-12T15:06:04.833Z,25.47
2023-03-12T15:10:05.010Z,25.44
2023-03-12T15:14:05.139Z,25.42
2023-03-12T15:18:05.233Z,25.41
2023-03-12T15:22:05.332Z,25.39
2023-03-12T15:26:05.454Z,25.36
2023-03-12T15:30:05.644Z,25.34
2023-03-12T15:34:05.750Z,25.32
2023-03-12T15:38:05.929Z,25.29
2023-03-12T15:42:06.273Z,25.27
2023-03-12T15:46:06.301Z,25.25
2023-03-12T15:50:06.238Z,25.23
2023-03-12T15:54:06.292Z,25.22
2023-03-12T15:58:06.479Z,25.19
2023-03-12T16:02:06.627Z,25.17
2023-03-12T16:06:06.816Z,25.15
2023-03-12T16:10:06.980Z,25.13
2023-03-12T16:14:07.169Z,25.12
2023-03-12T16:18:07.188Z,25.10
2023-03-12T16:22:07.290Z,25.09
2023-03-12T16:26:07.441Z,25.06
2023-03-12T16:30:07.510Z,25.04
2023-03-12T16:34:07.673Z,25.03
2023-03-12T16:38:07.765Z,25.01
2023-03-12T16:42:07.832Z,25.00
2023-03-12T16:46:07.921Z,24.98
2023-03-12T16:50:08.026Z,24.96
2023-03-12T16:54:11.623Z,24.94
2023-03-12T16:58:08.074Z,24.93
2023-03-12T17:02:07.995Z,24.90
2023-03-12T17:06:07.975Z,24.89
2023-03-12T17:10:07.948Z,24.87
2023-03-12T17:14:07.906Z,24.86
2023-03-12T17:18:07.894Z,24.85
2023-03-12T17:22:07.817Z,24.83
2023-03-12T17:26:07.781Z,24.82
2023-03-12T17:30:07.757Z,24.81
2023-03-12T17:34:07.710Z,24.80
2023-03-12T17:38:07.930Z,24.79
2023-03-12T17:42:08.007Z,24.78
2023-03-12T17:46:08.218Z,24.77
2023-03-12T17:50:08.354Z,24.77
2023-03-12T17:54:08.452Z,24.76
2023-03-12T17:58:08.590Z,24.75
2023-03-12T18:02:08.726Z,24.74
2023-03-12T18:06:08.914Z,24.74
2023-03-12T18:10:08.995Z,24.72
2023-03-12T18:14:09.142Z,24.71
2023-03-12T18:18:09.334Z,24.70
2023-03-12T18:22:09.394Z,24.70
2023-03-12T18:26:09.527Z,24.69
2023-03-12T18:30:09.713Z,24.68
2023-03-12T18:34:09.851Z,24.67
2023-03-12T18:38:10.046Z,24.67
2023-03-12T18:42:10.139Z,24.66
2023-03-12T18:46:10.325Z,24.66
2023-03-12T18:50:10.474Z,24.65
2023-03-12T18:54:10.548Z,24.65
2023-03-12T18:58:10.634Z,24.64
2023-03-12T19:02:10.795Z,24.63
2023-03-12T19:06:10.869Z,24.62
2023-03-12T19:10:11.054Z,24.62
2023-03-12T19:14:11.170Z,24.61
2023-03-12T19:18:11.238Z,24.59
2023-03-12T19:22:11.396Z,24.60
2023-03-12T19:26:11.538Z,24.58
2023-03-12T19:30:11.760Z,24.58
2023-03-12T19:34:11.790Z,24.57
2023-03-12T19:38:11.914Z,24.57
2023-03-12T19:42:12.080Z,24.56
2023-03-12T19:46:12.130Z,24.56
2023-03-12T19:50:12.229Z,24.56
2023-03-12T19:54:12.333Z,24.55
2023-03-12T19:58:12.356Z,24.54
2023-03-12T20:02:12.446Z,24.54
2023-03-12T20:06:12.572Z,24.53
2023-03-12T20:10:12.750Z,24.53
2023-03-12T20:14:12.895Z,24.52
2023-03-12T20:18:13.283Z,24.51
2023-03-12T20:22:13.150Z,24.51
2023-03-12T20:26:13.303Z,24.50
2023-03-12T20:30:13.477Z,24.50
2023-03-12T20:34:13.547Z,24.50
2023-03-12T20:38:13.628Z,24.50
2023-03-12T20:42:13.852Z,24.49
2023-03-12T20:46:14.073Z,24.48
2023-03-12T20:50:14.161Z,24.49
2023-03-12T20:54:14.303Z,24.47
2023-03-12T20:58:14.487Z,24.47
2023-03-12T21:02:14.576Z,24.47
2023-03-12T21:06:14.693Z,24.47
2023-03-12T21:10:14.769Z,24.47
2023-03-12T21:14:15.308Z,24.46
2023-03-12T21:18:14.924Z,24.46
2023-03-12T21:22:15.156Z,24.46
2023-03-12T21:26:15.318Z,24.45
2023-03-12T21:30:15.288Z,24.45
2023-03-12T21:34:15.262Z,24.44
2023-03-12T21:38:15.224Z,24.43
2023-03-12T21:42:15.318Z,24.43
2023-03-12T21:46:15.191Z,24.43
2023-03-12T21:50:15.108Z,24.43
2023-03-12T21:54:15.095Z,24.43
2023-03-12T21:58:15.064Z,24.43
2023-03-12T22:02:14.992Z,24.43
2023-03-12T22:06:14.950Z,24.41
2023-03-12T22:10:14.910Z,24.41
2023-03-12T22:14:14.928Z,24.40
2023-03-12T22:18:15.085Z,24.40
2023-03-12T22:22:15.304Z,24.41
2023-03-12T22:26:15.349Z,24.40
2023-03-12T22:30:15.447Z,24.39
2023-03-12T22:34:15.575Z,24.39
2023-03-12T22:38:15.639Z,24.39
2023-03-12T22:42:15.777Z,24.39
2023-03-12T22:46:15.849Z,24.38
2023-03-12T22:50:15.921Z,24.38
2023-03-12T22:54:16.055Z,24.38
2023-03-12T22:58:16.142Z,24.38
2023-03-12T23:02:16.454Z,24.37
2023-03-12T23:06:16.550Z,24.36
2023-03-12T23:10:16.651Z,24.36
2023-03-12T23:14:16.685Z,24.36
2023-03-12T23:18:16.784Z,24.36
2023-03-12T23:22:16.858Z,24.35
2023-03-12T23:26:16.977Z,24.35
2023-03-12T23:30:17.067Z,24.36
2023-03-12T23:34:17.186Z,24.36
2023-03-12T23:38:17.381Z,24.35
2023-03-12T23:42:17.526Z,24.35
2023-03-12T23:46:17.834Z,24.35
2023-03-12T23:50:17.830Z,24.35
2023-03-12T23:54:17.946Z,24.34
2023-03-12T23:58:18.017Z,24.33
